sensor_id;sensor_type;location;lat;lon;timestamp;temperature;humidity
10536;DHT22;5316;49.538;8.352;2024-01-06T00:00:24;7.10;99.90
10536;DHT22;5316;49.538;8.352;2024-01-06T00:02:55;7.10;99.90
10536;DHT22;5316;49.538;8.352;2024-01-06T00:05:22;6.10;1.00
10536;DHT22;5316;49.538;8.352;2024-01-06T00:07:49;6.90;1.00
10536;DHT22;5316;49.538;8.352;2024-01-06T00:10:18;6.10;1.00
10536;DHT22;5316;49.538;8.352;2024-01-06T00:12:47;6.00;1.00
10536;DHT22;5316;49.538;8.352;2024-01-06T00:15:17;6.80;1.00
10536;DHT22;5316;49.538;8.352;2024-01-06T00:17:44;5.50;99.90
10536;DHT22;5316;49.538;8.352;2024-01-06T00:20:11;6.00;99.90
10536;DHT22;5316;49.538;8.352;2024-01-06T00:22:39;6.10;99.90
10536;DHT22;5316;49.538;8.352;2024-01-06T00:25:10;5.50;99.90
10536;DHT22;5316;49.538;8.352;2024-01-06T00:27:42;5.50;1.00
10536;DHT22;5316;49.538;8.352;2024-01-06T00:30:12;5.90;1.00
10536;DHT22;5316;49.538;8.352;2024-01-06T00:32:42;5.60;1.00
10536;DHT22;5316;49.538;8.352;2024-01-06T00:35:09;5.40;1.00
10536;DHT22;5316;49.538;8.352;2024-01-06T00:37:36;6.60;65.50
10536;DHT22;5316;49.538;8.352;2024-01-06T00:40:07;5.30;94.40
10536;DHT22;5316;49.538;8.352;2024-01-06T00:42:36;6.00;11.00
10536;DHT22;5316;49.538;8.352;2024-01-06T00:45:06;6.40;75.40
10536;DHT22;5316;49.538;8.352;2024-01-06T00:47:33;5.30;99.90
10536;DHT22;5316;49.538;8.352;2024-01-06T00:50:06;5.20;99.90
10536;DHT22;5316;49.538;8.352;2024-01-06T00:52:33;4.30;99.90
10536;DHT22;5316;49.538;8.352;2024-01-06T00:55:04;5.10;99.90
10536;DHT22;5316;49.538;8.352;2024-01-06T00:57:33;5.10;99.90
10536;DHT22;5316;49.538;8.352;2024-01-06T01:00:00;5.10;99.90
10536;DHT22;5316;49.538;8.352;2024-01-06T01:02:30;5.40;99.90
10536;DHT22;5316;49.538;8.352;2024-01-06T01:04:57;5.10;99.90
10536;DHT22;5316;49.538;8.352;2024-01-06T01:07:27;6.40;99.90
10536;DHT22;5316;49.538;8.352;2024-01-06T01:09:54;5.20;99.90
10536;DHT22;5316;49.538;8.352;2024-01-06T01:12:21;4.90;99.90
10536;DHT22;5316;49.538;8.352;2024-01-06T01:14:52;5.70;99.90
10536;DHT22;5316;49.538;8.352;2024-01-06T01:17:19;4.00;1.00
10536;DHT22;5316;49.538;8.352;2024-01-06T01:19:48;5.90;46.20
10536;DHT22;5316;49.538;8.352;2024-01-06T01:22:17;5.80;1.00
10536;DHT22;5316;49.538;8.352;2024-01-06T01:24:44;5.70;99.90
10536;DHT22;5316;49.538;8.352;2024-01-06T01:27:11;5.70;99.90
10536;DHT22;5316;49.538;8.352;2024-01-06T01:29:38;5.80;99.90
10536;DHT22;5316;49.538;8.352;2024-01-06T01:32:06;5.80;56.50
10536;DHT22;5316;49.538;8.352;2024-01-06T01:34:33;5.50;99.90
10536;DHT22;5316;49.538;8.352;2024-01-06T01:37:04;5.70;1.00
10536;DHT22;5316;49.538;8.352;2024-01-06T01:39:31;6.60;1.00
10536;DHT22;5316;49.538;8.352;2024-01-06T01:42:01;6.30;22.40
10536;DHT22;5316;49.538;8.352;2024-01-06T01:44:32;5.70;99.90
10536;DHT22;5316;49.538;8.352;2024-01-06T01:46:59;5.80;99.90
10536;DHT22;5316;49.538;8.352;2024-01-06T01:49:32;5.70;99.90
10536;DHT22;5316;49.538;8.352;2024-01-06T01:52:00;6.20;1.00
10536;DHT22;5316;49.538;8.352;2024-01-06T01:54:29;7.10;1.00
10536;DHT22;5316;49.538;8.352;2024-01-06T01:56:56;5.60;1.00
10536;DHT22;5316;49.538;8.352;2024-01-06T01:59:24;5.70;1.00
10536;DHT22;5316;49.538;8.352;2024-01-06T02:01:53;5.60;46.80
10536;DHT22;5316;49.538;8.352;2024-01-06T02:04:24;5.60;99.90
10536;DHT22;5316;49.538;8.352;2024-01-06T02:06:55;6.50;99.90
10536;DHT22;5316;49.538;8.352;2024-01-06T02:09:25;7.10;99.90
10536;DHT22;5316;49.538;8.352;2024-01-06T02:11:59;5.20;99.90
10536;DHT22;5316;49.538;8.352;2024-01-06T02:14:28;6.90;99.90
10536;DHT22;5316;49.538;8.352;2024-01-06T02:16:55;4.90;82.80
10536;DHT22;5316;49.538;8.352;2024-01-06T02:19:22;6.30;1.00
10536;DHT22;5316;49.538;8.352;2024-01-06T02:21:53;6.90;1.00
10536;DHT22;5316;49.538;8.352;2024-01-06T02:24:22;4.90;1.00
10536;DHT22;5316;49.538;8.352;2024-01-06T02:26:49;7.00;59.00
10536;DHT22;5316;49.538;8.352;2024-01-06T02:29:16;5.70;56.90
10536;DHT22;5316;49.538;8.352;2024-01-06T02:31:43;6.20;79.30
10536;DHT22;5316;49.538;8.352;2024-01-06T02:34:10;5.70;99.90
10536;DHT22;5316;49.538;8.352;2024-01-06T02:36:37;5.80;1.00
10536;DHT22;5316;49.538;8.352;2024-01-06T02:39:08;5.70;1.00
10536;DHT22;5316;49.538;8.352;2024-01-06T02:41:35;6.40;83.90
10536;DHT22;5316;49.538;8.352;2024-01-06T02:44:05;7.00;1.00
10536;DHT22;5316;49.538;8.352;2024-01-06T02:46:32;7.00;1.00
10536;DHT22;5316;49.538;8.352;2024-01-06T02:48:59;5.70;1.00
10536;DHT22;5316;49.538;8.352;2024-01-06T02:51:26;5.80;1.00
10536;DHT22;5316;49.538;8.352;2024-01-06T02:53:53;6.60;99.90
10536;DHT22;5316;49.538;8.352;2024-01-06T02:56:21;5.80;1.00
10536;DHT22;5316;49.538;8.352;2024-01-06T02:58:48;5.50;99.90
10536;DHT22;5316;49.538;8.352;2024-01-06T03:01:15;6.80;99.90
10536;DHT22;5316;49.538;8.352;2024-01-06T03:03:42;7.00;99.90
10536;DHT22;5316;49.538;8.352;2024-01-06T03:06:09;6.30;99.90
10536;DHT22;5316;49.538;8.352;2024-01-06T03:08:36;5.80;99.90
10536;DHT22;5316;49.538;8.352;2024-01-06T03:11:03;5.60;8.10
10536;DHT22;5316;49.538;8.352;2024-01-06T03:13:32;6.00;1.00
10536;DHT22;5316;49.538;8.352;2024-01-06T03:16:03;5.90;1.00
10536;DHT22;5316;49.538;8.352;2024-01-06T03:18:30;6.20;99.90
10536;DHT22;5316;49.538;8.352;2024-01-06T03:20:56;7.00;99.90
10536;DHT22;5316;49.538;8.352;2024-01-06T03:23:26;7.40;99.90
10536;DHT22;5316;49.538;8.352;2024-01-06T03:25:52;5.90;99.90
10536;DHT22;5316;49.538;8.352;2024-01-06T03:28:19;7.10;99.90
10536;DHT22;5316;49.538;8.352;2024-01-06T03:30:48;6.20;99.90
10536;DHT22;5316;49.538;8.352;2024-01-06T03:33:15;6.00;99.90
10536;DHT22;5316;49.538;8.352;2024-01-06T03:35:42;6.90;99.90
10536;DHT22;5316;49.538;8.352;2024-01-06T03:38:08;6.10;65.30
10536;DHT22;5316;49.538;8.352;2024-01-06T03:40:35;6.50;1.00
10536;DHT22;5316;49.538;8.352;2024-01-06T03:43:02;7.20;99.90
10536;DHT22;5316;49.538;8.352;2024-01-06T03:45:29;6.00;99.90
10536;DHT22;5316;49.538;8.352;2024-01-06T03:47:57;7.40;99.90
10536;DHT22;5316;49.538;8.352;2024-01-06T03:50:24;7.40;99.90
10536;DHT22;5316;49.538;8.352;2024-01-06T03:52:51;6.10;29.40
10536;DHT22;5316;49.538;8.352;2024-01-06T03:55:18;6.60;34.90
10536;DHT22;5316;49.538;8.352;2024-01-06T03:57:45;6.10;1.00
10536;DHT22;5316;49.538;8.352;2024-01-06T04:00:12;6.00;1.00
10536;DHT22;5316;49.538;8.352;2024-01-06T04:02:40;5.60;1.00
10536;DHT22;5316;49.538;8.352;2024-01-06T04:05:08;6.90;1.00
10536;DHT22;5316;49.538;8.352;2024-01-06T04:07:35;5.10;1.00
10536;DHT22;5316;49.538;8.352;2024-01-06T04:10:03;6.60;1.00
10536;DHT22;5316;49.538;8.352;2024-01-06T04:12:30;5.60;1.00
10536;DHT22;5316;49.538;8.352;2024-01-06T04:14:57;6.10;1.00
10536;DHT22;5316;49.538;8.352;2024-01-06T04:17:23;7.10;38.10
10536;DHT22;5316;49.538;8.352;2024-01-06T04:19:51;7.00;99.90
10536;DHT22;5316;49.538;8.352;2024-01-06T04:22:20;6.10;99.90
10536;DHT22;5316;49.538;8.352;2024-01-06T04:24:47;6.10;1.00
10536;DHT22;5316;49.538;8.352;2024-01-06T04:27:13;5.10;1.00
10536;DHT22;5316;49.538;8.352;2024-01-06T04:29:40;7.30;1.00
10536;DHT22;5316;49.538;8.352;2024-01-06T04:32:07;6.00;1.00
10536;DHT22;5316;49.538;8.352;2024-01-06T04:34:34;5.90;1.00
10536;DHT22;5316;49.538;8.352;2024-01-06T04:37:01;6.10;1.00
10536;DHT22;5316;49.538;8.352;2024-01-06T04:39:31;6.10;4.30
10536;DHT22;5316;49.538;8.352;2024-01-06T04:41:58;7.60;60.20
10536;DHT22;5316;49.538;8.352;2024-01-06T04:44:25;5.20;99.90
10536;DHT22;5316;49.538;8.352;2024-01-06T04:46:52;5.00;99.90
10536;DHT22;5316;49.538;8.352;2024-01-06T04:49:19;6.00;90.00
10536;DHT22;5316;49.538;8.352;2024-01-06T04:51:47;7.10;99.90
10536;DHT22;5316;49.538;8.352;2024-01-06T04:54:14;5.90;99.90
10536;DHT22;5316;49.538;8.352;2024-01-06T04:56:42;6.00;99.90
10536;DHT22;5316;49.538;8.352;2024-01-06T04:59:09;6.80;99.90
10536;DHT22;5316;49.538;8.352;2024-01-06T05:01:36;5.90;99.90
10536;DHT22;5316;49.538;8.352;2024-01-06T05:04:03;7.20;99.90
10536;DHT22;5316;49.538;8.352;2024-01-06T05:06:32;6.00;1.00
10536;DHT22;5316;49.538;8.352;2024-01-06T05:08:59;7.50;1.00
10536;DHT22;5316;49.538;8.352;2024-01-06T05:11:26;7.00;99.90
10536;DHT22;5316;49.538;8.352;2024-01-06T05:13:56;5.80;99.90
10536;DHT22;5316;49.538;8.352;2024-01-06T05:16:23;5.90;1.00
10536;DHT22;5316;49.538;8.352;2024-01-06T05:18:50;7.00;1.00
10536;DHT22;5316;49.538;8.352;2024-01-06T05:21:17;5.70;99.90
10536;DHT22;5316;49.538;8.352;2024-01-06T05:23:44;5.70;99.90
10536;DHT22;5316;49.538;8.352;2024-01-06T05:26:11;6.50;99.90
10536;DHT22;5316;49.538;8.352;2024-01-06T05:28:39;7.20;99.90
10536;DHT22;5316;49.538;8.352;2024-01-06T05:31:07;6.00;1.00
10536;DHT22;5316;49.538;8.352;2024-01-06T05:33:37;7.30;1.00
10536;DHT22;5316;49.538;8.352;2024-01-06T05:36:04;7.30;1.00
10536;DHT22;5316;49.538;8.352;2024-01-06T05:38:31;6.00;1.00
10536;DHT22;5316;49.538;8.352;2024-01-06T05:40:58;5.90;10.70
10536;DHT22;5316;49.538;8.352;2024-01-06T05:43:25;6.40;85.50
10536;DHT22;5316;49.538;8.352;2024-01-06T05:45:52;5.90;99.90
10536;DHT22;5316;49.538;8.352;2024-01-06T05:48:20;6.40;92.10
10536;DHT22;5316;49.538;8.352;2024-01-06T05:50:47;6.00;99.90
10536;DHT22;5316;49.538;8.352;2024-01-06T05:53:14;5.30;99.90
10536;DHT22;5316;49.538;8.352;2024-01-06T05:55:43;6.20;99.90
10536;DHT22;5316;49.538;8.352;2024-01-06T05:58:13;6.00;99.90
10536;DHT22;5316;49.538;8.352;2024-01-06T06:00:40;5.90;99.90
10536;DHT22;5316;49.538;8.352;2024-01-06T06:03:07;6.50;99.90
10536;DHT22;5316;49.538;8.352;2024-01-06T06:05:35;4.60;99.90
10536;DHT22;5316;49.538;8.352;2024-01-06T06:08:02;7.00;99.90
10536;DHT22;5316;49.538;8.352;2024-01-06T06:10:29;5.90;99.90
10536;DHT22;5316;49.538;8.352;2024-01-06T06:13:08;5.80;1.00
10536;DHT22;5316;49.538;8.352;2024-01-06T06:15:36;6.70;1.00
10536;DHT22;5316;49.538;8.352;2024-01-06T06:18:04;5.70;1.00
10536;DHT22;5316;49.538;8.352;2024-01-06T06:20:30;5.80;1.00
10536;DHT22;5316;49.538;8.352;2024-01-06T06:22:59;5.90;1.00
10536;DHT22;5316;49.538;8.352;2024-01-06T06:25:26;5.90;1.00
10536;DHT22;5316;49.538;8.352;2024-01-06T06:27:54;7.00;1.00
10536;DHT22;5316;49.538;8.352;2024-01-06T06:30:21;6.90;1.00
10536;DHT22;5316;49.538;8.352;2024-01-06T06:32:48;6.80;1.00
10536;DHT22;5316;49.538;8.352;2024-01-06T06:35:16;6.30;1.00
10536;DHT22;5316;49.538;8.352;2024-01-06T06:37:44;7.10;1.00
10536;DHT22;5316;49.538;8.352;2024-01-06T06:40:12;5.90;3.80
10536;DHT22;5316;49.538;8.352;2024-01-06T06:42:42;6.00;9.70
10536;DHT22;5316;49.538;8.352;2024-01-06T06:45:09;6.10;8.40
10536;DHT22;5316;49.538;8.352;2024-01-06T06:47:37;7.00;17.20
10536;DHT22;5316;49.538;8.352;2024-01-06T06:50:05;5.80;18.70
10536;DHT22;5316;49.538;8.352;2024-01-06T06:52:32;4.60;3.80
10536;DHT22;5316;49.538;8.352;2024-01-06T06:54:59;6.00;1.00
10536;DHT22;5316;49.538;8.352;2024-01-06T06:57:27;5.90;1.00
10536;DHT22;5316;49.538;8.352;2024-01-06T06:59:57;7.30;4.10
10536;DHT22;5316;49.538;8.352;2024-01-06T07:02:23;6.70;1.00
10536;DHT22;5316;49.538;8.352;2024-01-06T07:04:50;7.20;11.50
10536;DHT22;5316;49.538;8.352;2024-01-06T07:07:20;7.00;6.20
10536;DHT22;5316;49.538;8.352;2024-01-06T07:09:47;6.60;11.20
10536;DHT22;5316;49.538;8.352;2024-01-06T07:12:16;7.20;8.80
10536;DHT22;5316;49.538;8.352;2024-01-06T07:14:44;5.00;11.50
10536;DHT22;5316;49.538;8.352;2024-01-06T07:17:11;6.30;26.60
10536;DHT22;5316;49.538;8.352;2024-01-06T07:19:38;6.00;13.90
10536;DHT22;5316;49.538;8.352;2024-01-06T07:22:11;6.00;1.00
10536;DHT22;5316;49.538;8.352;2024-01-06T07:24:42;7.40;1.00
10536;DHT22;5316;49.538;8.352;2024-01-06T07:27:10;6.00;1.00
10536;DHT22;5316;49.538;8.352;2024-01-06T07:29:38;6.10;1.00
10536;DHT22;5316;49.538;8.352;2024-01-06T07:32:09;6.00;1.00
10536;DHT22;5316;49.538;8.352;2024-01-06T07:34:36;7.10;1.00
10536;DHT22;5316;49.538;8.352;2024-01-06T07:37:09;6.00;1.00
10536;DHT22;5316;49.538;8.352;2024-01-06T07:39:36;6.00;1.00
10536;DHT22;5316;49.538;8.352;2024-01-06T07:42:06;6.10;1.00
10536;DHT22;5316;49.538;8.352;2024-01-06T07:44:33;7.30;1.00
10536;DHT22;5316;49.538;8.352;2024-01-06T07:47:00;6.10;1.00
10536;DHT22;5316;49.538;8.352;2024-01-06T07:49:32;6.70;1.00
10536;DHT22;5316;49.538;8.352;2024-01-06T07:51:58;6.00;1.00
10536;DHT22;5316;49.538;8.352;2024-01-06T07:54:25;6.10;1.00
10536;DHT22;5316;49.538;8.352;2024-01-06T07:56:52;7.20;1.00
10536;DHT22;5316;49.538;8.352;2024-01-06T07:59:19;7.20;1.00
10536;DHT22;5316;49.538;8.352;2024-01-06T08:01:46;6.10;1.00
10536;DHT22;5316;49.538;8.352;2024-01-06T08:04:12;6.10;1.00
10536;DHT22;5316;49.538;8.352;2024-01-06T08:06:41;7.40;1.00
10536;DHT22;5316;49.538;8.352;2024-01-06T08:09:07;6.10;1.00
10536;DHT22;5316;49.538;8.352;2024-01-06T08:11:35;7.60;27.80
10536;DHT22;5316;49.538;8.352;2024-01-06T08:14:01;7.40;59.10
10536;DHT22;5316;49.538;8.352;2024-01-06T08:16:28;6.20;92.20
10536;DHT22;5316;49.538;8.352;2024-01-06T08:18:55;6.10;91.60
10536;DHT22;5316;49.538;8.352;2024-01-06T08:21:28;7.30;99.90
10536;DHT22;5316;49.538;8.352;2024-01-06T08:23:56;6.20;99.90
10536;DHT22;5316;49.538;8.352;2024-01-06T08:26:23;6.30;99.90
10536;DHT22;5316;49.538;8.352;2024-01-06T08:28:50;7.50;99.90
10536;DHT22;5316;49.538;8.352;2024-01-06T08:31:17;6.80;99.90
10536;DHT22;5316;49.538;8.352;2024-01-06T08:33:44;6.20;99.90
10536;DHT22;5316;49.538;8.352;2024-01-06T08:36:11;6.10;99.90
10536;DHT22;5316;49.538;8.352;2024-01-06T08:38:38;6.10;99.90
10536;DHT22;5316;49.538;8.352;2024-01-06T08:41:06;6.40;99.90
10536;DHT22;5316;49.538;8.352;2024-01-06T08:43:33;7.00;99.90
10536;DHT22;5316;49.538;8.352;2024-01-06T08:46:00;6.30;99.90
10536;DHT22;5316;49.538;8.352;2024-01-06T08:48:27;6.20;99.90
10536;DHT22;5316;49.538;8.352;2024-01-06T08:50:54;6.40;99.90
10536;DHT22;5316;49.538;8.352;2024-01-06T08:53:33;6.50;99.90
10536;DHT22;5316;49.538;8.352;2024-01-06T08:56:30;6.50;99.90
10536;DHT22;5316;49.538;8.352;2024-01-06T08:59:21;6.50;99.90
10536;DHT22;5316;49.538;8.352;2024-01-06T09:04:44;6.50;99.90
10536;DHT22;5316;49.538;8.352;2024-01-06T09:08:10;6.60;99.90
10536;DHT22;5316;49.538;8.352;2024-01-06T09:10:55;6.50;99.90
10536;DHT22;5316;49.538;8.352;2024-01-06T09:37:50;6.70;99.90
10536;DHT22;5316;49.538;8.352;2024-01-06T09:40:21;6.70;99.90
10536;DHT22;5316;49.538;8.352;2024-01-06T09:42:48;6.70;99.90
10536;DHT22;5316;49.538;8.352;2024-01-06T09:45:15;6.70;99.90
10536;DHT22;5316;49.538;8.352;2024-01-06T09:47:42;6.70;99.90
10536;DHT22;5316;49.538;8.352;2024-01-06T09:50:11;6.80;99.90
10536;DHT22;5316;49.538;8.352;2024-01-06T09:52:41;6.80;99.90
10536;DHT22;5316;49.538;8.352;2024-01-06T09:55:11;6.80;99.90
10536;DHT22;5316;49.538;8.352;2024-01-06T09:57:38;6.90;99.90
10536;DHT22;5316;49.538;8.352;2024-01-06T10:00:06;6.90;99.90
10536;DHT22;5316;49.538;8.352;2024-01-06T10:02:33;6.90;99.90
10536;DHT22;5316;49.538;8.352;2024-01-06T10:05:00;6.90;99.90
10536;DHT22;5316;49.538;8.352;2024-01-06T10:07:28;7.00;99.90
10536;DHT22;5316;49.538;8.352;2024-01-06T10:09:55;7.00;99.90
10536;DHT22;5316;49.538;8.352;2024-01-06T10:12:24;7.00;99.90
10536;DHT22;5316;49.538;8.352;2024-01-06T10:14:51;7.00;99.90
10536;DHT22;5316;49.538;8.352;2024-01-06T10:17:18;7.00;99.90
10536;DHT22;5316;49.538;8.352;2024-01-06T10:22:13;7.00;99.90
10536;DHT22;5316;49.538;8.352;2024-01-06T10:24:39;7.00;99.90
10536;DHT22;5316;49.538;8.352;2024-01-06T10:27:06;8.20;99.90
10536;DHT22;5316;49.538;8.352;2024-01-06T10:29:36;7.00;99.90
10536;DHT22;5316;49.538;8.352;2024-01-06T10:32:03;7.10;99.90
10536;DHT22;5316;49.538;8.352;2024-01-06T10:36:59;7.20;99.90
10536;DHT22;5316;49.538;8.352;2024-01-06T10:44:24;7.40;99.90
10536;DHT22;5316;49.538;8.352;2024-01-06T10:47:24;7.20;99.90
10536;DHT22;5316;49.538;8.352;2024-01-06T10:52:44;7.50;99.90
10536;DHT22;5316;49.538;8.352;2024-01-06T10:55:15;7.60;99.90
10536;DHT22;5316;49.538;8.352;2024-01-06T10:58:05;7.70;99.90
10536;DHT22;5316;49.538;8.352;2024-01-06T11:03:02;7.80;99.90
10536;DHT22;5316;49.538;8.352;2024-01-06T11:05:30;7.80;99.90
10536;DHT22;5316;49.538;8.352;2024-01-06T11:07:59;8.00;1.50
10536;DHT22;5316;49.538;8.352;2024-01-06T11:10:36;8.00;1.00
10536;DHT22;5316;49.538;8.352;2024-01-06T11:13:11;8.10;1.00
10536;DHT22;5316;49.538;8.352;2024-01-06T11:15:39;8.10;1.00
10536;DHT22;5316;49.538;8.352;2024-01-06T11:18:07;8.10;1.00
10536;DHT22;5316;49.538;8.352;2024-01-06T11:20:36;8.10;1.00
10536;DHT22;5316;49.538;8.352;2024-01-06T11:23:28;8.10;1.00
10536;DHT22;5316;49.538;8.352;2024-01-06T11:25:58;8.10;1.00
10536;DHT22;5316;49.538;8.352;2024-01-06T11:28:28;8.10;1.00
10536;DHT22;5316;49.538;8.352;2024-01-06T11:31:05;8.10;1.00
10536;DHT22;5316;49.538;8.352;2024-01-06T11:33:41;8.10;1.00
10536;DHT22;5316;49.538;8.352;2024-01-06T11:36:08;8.10;1.00
10536;DHT22;5316;49.538;8.352;2024-01-06T11:38:37;8.10;1.00
10536;DHT22;5316;49.538;8.352;2024-01-06T11:41:06;8.00;1.00
10536;DHT22;5316;49.538;8.352;2024-01-06T11:43:34;8.10;1.00
10536;DHT22;5316;49.538;8.352;2024-01-06T11:46:02;8.60;1.00
10536;DHT22;5316;49.538;8.352;2024-01-06T11:48:33;8.10;1.00
10536;DHT22;5316;49.538;8.352;2024-01-06T11:51:03;8.10;1.00
10536;DHT22;5316;49.538;8.352;2024-01-06T11:53:30;8.10;1.00
10536;DHT22;5316;49.538;8.352;2024-01-06T11:58:24;8.20;99.90
10536;DHT22;5316;49.538;8.352;2024-01-06T12:00:57;8.20;99.90
10536;DHT22;5316;49.538;8.352;2024-01-06T12:03:24;8.20;99.90
10536;DHT22;5316;49.538;8.352;2024-01-06T12:06:00;8.20;99.90
10536;DHT22;5316;49.538;8.352;2024-01-06T12:08:41;8.20;99.90
10536;DHT22;5316;49.538;8.352;2024-01-06T12:13:34;8.10;99.90
10536;DHT22;5316;49.538;8.352;2024-01-06T12:16:01;8.10;99.90
10536;DHT22;5316;49.538;8.352;2024-01-06T12:23:28;8.10;99.90
10536;DHT22;5316;49.538;8.352;2024-01-06T12:25:55;8.10;99.90
10536;DHT22;5316;49.538;8.352;2024-01-06T12:28:22;8.10;1.00
10536;DHT22;5316;49.538;8.352;2024-01-06T12:30:50;8.20;1.00
10536;DHT22;5316;49.538;8.352;2024-01-06T12:33:16;8.20;1.00
10536;DHT22;5316;49.538;8.352;2024-01-06T12:38:10;8.20;1.00
10536;DHT22;5316;49.538;8.352;2024-01-06T12:40:38;8.20;1.00
10536;DHT22;5316;49.538;8.352;2024-01-06T12:43:06;8.20;99.90
10536;DHT22;5316;49.538;8.352;2024-01-06T12:45:33;8.20;99.90
10536;DHT22;5316;49.538;8.352;2024-01-06T12:48:13;8.20;1.00
10536;DHT22;5316;49.538;8.352;2024-01-06T12:53:08;8.20;1.00
10536;DHT22;5316;49.538;8.352;2024-01-06T12:58:06;8.10;1.00
10536;DHT22;5316;49.538;8.352;2024-01-06T13:00:33;8.10;1.00
10536;DHT22;5316;49.538;8.352;2024-01-06T13:03:00;8.70;1.00
10536;DHT22;5316;49.538;8.352;2024-01-06T13:05:27;8.10;1.00
10536;DHT22;5316;49.538;8.352;2024-01-06T13:07:54;8.10;1.00
10536;DHT22;5316;49.538;8.352;2024-01-06T13:10:20;8.00;1.00
10536;DHT22;5316;49.538;8.352;2024-01-06T13:12:47;8.10;1.00
10536;DHT22;5316;49.538;8.352;2024-01-06T13:15:15;8.10;1.00
10536;DHT22;5316;49.538;8.352;2024-01-06T13:17:42;8.10;1.00
10536;DHT22;5316;49.538;8.352;2024-01-06T13:20:09;8.00;1.00
10536;DHT22;5316;49.538;8.352;2024-01-06T13:22:36;8.00;1.00
10536;DHT22;5316;49.538;8.352;2024-01-06T13:25:03;8.00;1.00
10536;DHT22;5316;49.538;8.352;2024-01-06T13:27:33;7.90;1.00
10536;DHT22;5316;49.538;8.352;2024-01-06T13:30:00;7.90;1.00
10536;DHT22;5316;49.538;8.352;2024-01-06T13:32:28;8.70;1.00
10536;DHT22;5316;49.538;8.352;2024-01-06T13:34:54;7.90;1.00
10536;DHT22;5316;49.538;8.352;2024-01-06T13:37:27;7.70;1.00
10536;DHT22;5316;49.538;8.352;2024-01-06T13:39:54;7.80;17.20
10536;DHT22;5316;49.538;8.352;2024-01-06T13:44:48;7.70;98.50
10536;DHT22;5316;49.538;8.352;2024-01-06T13:47:15;7.70;99.90
10536;DHT22;5316;49.538;8.352;2024-01-06T13:49:43;8.30;99.90
10536;DHT22;5316;49.538;8.352;2024-01-06T13:52:09;7.70;99.90
10536;DHT22;5316;49.538;8.352;2024-01-06T13:54:36;7.70;99.90
10536;DHT22;5316;49.538;8.352;2024-01-06T13:57:03;7.70;99.90
10536;DHT22;5316;49.538;8.352;2024-01-06T13:59:30;7.70;99.90
10536;DHT22;5316;49.538;8.352;2024-01-06T14:01:56;7.70;99.90
10536;DHT22;5316;49.538;8.352;2024-01-06T14:04:23;7.70;99.90
10536;DHT22;5316;49.538;8.352;2024-01-06T14:06:51;7.70;99.90
10536;DHT22;5316;49.538;8.352;2024-01-06T14:09:21;7.70;99.90
10536;DHT22;5316;49.538;8.352;2024-01-06T14:11:48;7.70;99.90
10536;DHT22;5316;49.538;8.352;2024-01-06T14:14:15;7.70;99.90
10536;DHT22;5316;49.538;8.352;2024-01-06T14:16:42;7.60;99.90
10536;DHT22;5316;49.538;8.352;2024-01-06T14:24:07;7.60;99.90
10536;DHT22;5316;49.538;8.352;2024-01-06T14:29:01;7.50;99.90
10536;DHT22;5316;49.538;8.352;2024-01-06T14:33:55;7.50;99.90
10536;DHT22;5316;49.538;8.352;2024-01-06T14:38:49;7.50;99.90
10536;DHT22;5316;49.538;8.352;2024-01-06T14:41:19;7.50;99.90
10536;DHT22;5316;49.538;8.352;2024-01-06T14:43:45;7.50;99.90
10536;DHT22;5316;49.538;8.352;2024-01-06T14:46:12;7.50;99.90
10536;DHT22;5316;49.538;8.352;2024-01-06T14:48:39;7.50;99.90
10536;DHT22;5316;49.538;8.352;2024-01-06T14:51:05;7.50;99.90
10536;DHT22;5316;49.538;8.352;2024-01-06T14:53:32;7.50;99.90
10536;DHT22;5316;49.538;8.352;2024-01-06T14:56:00;7.50;99.90
10536;DHT22;5316;49.538;8.352;2024-01-06T14:58:30;7.50;99.90
10536;DHT22;5316;49.538;8.352;2024-01-06T15:00:57;7.60;99.90
10536;DHT22;5316;49.538;8.352;2024-01-06T15:03:25;7.60;99.90
10536;DHT22;5316;49.538;8.352;2024-01-06T15:05:51;7.60;99.90
10536;DHT22;5316;49.538;8.352;2024-01-06T15:08:18;7.50;99.90
10536;DHT22;5316;49.538;8.352;2024-01-06T15:10:45;7.60;99.90
10536;DHT22;5316;49.538;8.352;2024-01-06T15:13:11;7.50;99.90
10536;DHT22;5316;49.538;8.352;2024-01-06T15:15:39;7.60;99.90
10536;DHT22;5316;49.538;8.352;2024-01-06T15:18:06;7.60;99.90
10536;DHT22;5316;49.538;8.352;2024-01-06T15:20:34;7.60;99.90
10536;DHT22;5316;49.538;8.352;2024-01-06T15:23:01;7.60;99.90
10536;DHT22;5316;49.538;8.352;2024-01-06T15:25:27;7.60;99.90
10536;DHT22;5316;49.538;8.352;2024-01-06T15:27:54;7.60;99.90
10536;DHT22;5316;49.538;8.352;2024-01-06T15:30:21;7.60;99.90
10536;DHT22;5316;49.538;8.352;2024-01-06T15:32:50;7.60;99.90
10536;DHT22;5316;49.538;8.352;2024-01-06T15:35:17;7.50;99.90
10536;DHT22;5316;49.538;8.352;2024-01-06T15:37:44;7.50;99.90
10536;DHT22;5316;49.538;8.352;2024-01-06T15:40:12;7.50;99.90
10536;DHT22;5316;49.538;8.352;2024-01-06T15:42:39;7.50;99.90
10536;DHT22;5316;49.538;8.352;2024-01-06T15:45:06;7.50;99.90
10536;DHT22;5316;49.538;8.352;2024-01-06T15:47:33;7.40;99.90
10536;DHT22;5316;49.538;8.352;2024-01-06T15:50:01;7.40;99.90
10536;DHT22;5316;49.538;8.352;2024-01-06T15:52:29;7.50;99.90
10536;DHT22;5316;49.538;8.352;2024-01-06T15:54:56;7.40;99.90
10536;DHT22;5316;49.538;8.352;2024-01-06T15:57:24;7.30;99.90
10536;DHT22;5316;49.538;8.352;2024-01-06T15:59:53;7.30;99.90
10536;DHT22;5316;49.538;8.352;2024-01-06T16:02:21;7.30;99.90
10536;DHT22;5316;49.538;8.352;2024-01-06T16:04:49;7.20;99.90
10536;DHT22;5316;49.538;8.352;2024-01-06T16:07:18;7.20;99.90
10536;DHT22;5316;49.538;8.352;2024-01-06T16:09:45;7.20;99.90
10536;DHT22;5316;49.538;8.352;2024-01-06T16:12:11;7.20;99.90
10536;DHT22;5316;49.538;8.352;2024-01-06T16:14:39;7.10;99.90
10536;DHT22;5316;49.538;8.352;2024-01-06T16:17:04;7.00;99.90
10536;DHT22;5316;49.538;8.352;2024-01-06T16:19:32;6.80;99.90
10536;DHT22;5316;49.538;8.352;2024-01-06T16:21:58;6.80;99.90
10536;DHT22;5316;49.538;8.352;2024-01-06T16:24:27;6.70;99.90
10536;DHT22;5316;49.538;8.352;2024-01-06T16:26:55;6.70;99.90
10536;DHT22;5316;49.538;8.352;2024-01-06T16:29:22;6.60;99.90
10536;DHT22;5316;49.538;8.352;2024-01-06T16:31:49;6.60;99.90
10536;DHT22;5316;49.538;8.352;2024-01-06T16:34:15;6.60;99.90
10536;DHT22;5316;49.538;8.352;2024-01-06T16:36:42;6.60;99.90
10536;DHT22;5316;49.538;8.352;2024-01-06T16:39:09;6.50;99.90
10536;DHT22;5316;49.538;8.352;2024-01-06T16:41:37;6.50;99.90
10536;DHT22;5316;49.538;8.352;2024-01-06T16:44:04;6.50;99.90
10536;DHT22;5316;49.538;8.352;2024-01-06T16:46:31;6.40;99.90
10536;DHT22;5316;49.538;8.352;2024-01-06T16:48:57;6.40;99.90
10536;DHT22;5316;49.538;8.352;2024-01-06T16:51:24;6.40;99.90
10536;DHT22;5316;49.538;8.352;2024-01-06T16:53:51;6.40;99.90
10536;DHT22;5316;49.538;8.352;2024-01-06T16:56:20;6.30;99.90
10536;DHT22;5316;49.538;8.352;2024-01-06T16:58:53;6.30;99.90
10536;DHT22;5316;49.538;8.352;2024-01-06T17:01:20;6.30;99.90
10536;DHT22;5316;49.538;8.352;2024-01-06T17:03:47;6.30;99.90
10536;DHT22;5316;49.538;8.352;2024-01-06T17:06:14;6.30;99.90
10536;DHT22;5316;49.538;8.352;2024-01-06T17:08:40;6.30;99.90
10536;DHT22;5316;49.538;8.352;2024-01-06T17:11:08;6.30;99.90
10536;DHT22;5316;49.538;8.352;2024-01-06T17:13:35;6.30;99.90
10536;DHT22;5316;49.538;8.352;2024-01-06T17:16:04;6.20;99.90
10536;DHT22;5316;49.538;8.352;2024-01-06T17:18:31;6.20;99.90
10536;DHT22;5316;49.538;8.352;2024-01-06T17:20:58;6.20;99.90
10536;DHT22;5316;49.538;8.352;2024-01-06T17:23:24;6.20;99.90
10536;DHT22;5316;49.538;8.352;2024-01-06T17:25:51;6.20;99.90
10536;DHT22;5316;49.538;8.352;2024-01-06T17:28:20;6.20;99.90